Etusivu
METAR-TAF:

METAR-TAF

Lentoasemat :

Metlakatla, Alaska, Yhdysvallat

Leveyspiiri: 55-07-52N, Pituuspiiri: 131-34-41W, korkeus merenpinnasta: 0 m

Tämänhetkinen sää

Tämä raportti tehtiin 4 minuuttia sitten, kello 11.56 UTC
tyyntä
Lämpötila 14°C
Kosteus 94%
Ilmanpaine 1030 hPa
Näkyvyys: 16.1 km
Pilvistä 1800 ft:n korkeudessa

METAR: PAMM 181156Z AUTO 00000KT 10SM OVC018 14/13 A3041 RMK AO2 SLP288 60000 70001 T01390128 10139 20139 51005

Aika: 04:00 (12:00 UTC)


TAF: puuttuu

Säähavainnot ja -ennusteet yli 4000 lentoasemalta (METAR- ja TAF-raportit).

Käytössä olevat sääasemat on merkitty karttaan keltaisilla ja punaisilla pisteillä.

Aseta hiiri pisteen päälle nähdäksesi sääaseman nimen.

Klikkaa sitten nähdäksesi säähavainnot ja -ennusteet.

Kartan vaihtaminen: klikkaa mustalla rastilla varustettuja vihreitä pisteitä, niin voit zoomata sisään; viivalla varustettua vihreää pistettä, niin voit zoomata ulos tai vihreitä nuolia, niin pääset viereisille kartoille.


METAR-TAF: